createdAt,value
2022-08-07T00:00:22.449Z,7.30
2022-08-07T00:02:36.670Z,12.00
2022-08-07T00:03:17.349Z,4.80
2022-08-07T00:04:25.909Z,6.40
2022-08-07T00:05:33.958Z,7.60
2022-08-07T00:06:51.607Z,4.70
2022-08-07T00:08:02.445Z,6.50
2022-08-07T00:09:17.151Z,5.90
2022-08-07T00:10:31.917Z,8.40
2022-08-07T00:11:47.854Z,7.20
2022-08-07T00:13:17.524Z,6.80
2022-08-07T00:14:34.817Z,5.20
2022-08-07T00:15:46.889Z,9.50
2022-08-07T00:17:02.911Z,5.90
2022-08-07T00:18:19.389Z,8.50
2022-08-07T00:20:01.604Z,7.70
2022-08-07T00:21:03.278Z,6.10
2022-08-07T00:22:24.894Z,6.20
2022-08-07T00:23:45.780Z,6.10
2022-08-07T00:24:56.828Z,8.40
2022-08-07T00:26:12.955Z,5.90
2022-08-07T00:27:35.920Z,4.30
2022-08-07T00:28:59.837Z,7.10
2022-08-07T00:30:26.595Z,6.70
2022-08-07T00:31:38.213Z,6.50
2022-08-07T00:32:54.393Z,8.10
2022-08-07T00:34:02.310Z,6.60
2022-08-07T00:35:11.357Z,5.60
2022-08-07T00:36:29.254Z,5.10
2022-08-07T00:37:48.143Z,5.00
2022-08-07T00:38:58.988Z,5.60
2022-08-07T00:40:10.901Z,6.40
2022-08-07T00:41:37.299Z,5.80
2022-08-07T00:42:54.458Z,4.90
2022-08-07T00:45:16.752Z,7.60
2022-08-07T00:46:28.888Z,5.70
2022-08-07T00:48:08.846Z,5.10
2022-08-07T00:49:06.103Z,4.40
2022-08-07T00:50:46.511Z,7.10
2022-08-07T00:51:58.271Z,4.80
2022-08-07T00:53:09.254Z,7.30
2022-08-07T00:54:19.791Z,8.40
2022-08-07T00:56:03.003Z,6.00
2022-08-07T00:56:59.767Z,5.80
2022-08-07T00:58:07.611Z,3.40
2022-08-07T00:59:20.314Z,5.80
2022-08-07T01:00:53.674Z,4.80
2022-08-07T01:02:27.812Z,3.70
2022-08-07T01:03:55.449Z,3.90
2022-08-07T01:05:19.093Z,4.10
2022-08-07T01:06:29.442Z,4.00
2022-08-07T01:07:38.511Z,4.90
2022-08-07T01:08:53.193Z,6.60
2022-08-07T01:10:02.473Z,4.30
2022-08-07T01:12:24.069Z,3.00
2022-08-07T01:12:53.787Z,5.50
2022-08-07T01:14:05.104Z,5.60
2022-08-07T01:15:17.001Z,4.00
2022-08-07T01:16:30.775Z,4.10
2022-08-07T01:17:40.053Z,3.20
2022-08-07T01:18:50.697Z,4.50
2022-08-07T01:20:00.687Z,4.00
2022-08-07T01:21:24.404Z,3.50
2022-08-07T01:22:46.644Z,4.20
2022-08-07T01:24:03.866Z,3.20
2022-08-07T01:25:40.645Z,5.10
2022-08-07T01:26:45.206Z,3.60
2022-08-07T01:28:04.044Z,3.00
2022-08-07T01:29:15.807Z,3.40
2022-08-07T01:30:27.236Z,4.20
2022-08-07T01:31:42.708Z,3.10
2022-08-07T01:32:57.277Z,5.10
2022-08-07T01:34:09.311Z,4.80
2022-08-07T01:35:21.202Z,4.20
2022-08-07T01:36:40.692Z,6.70
2022-08-07T01:37:57.008Z,2.70
2022-08-07T01:39:09.944Z,2.90
2022-08-07T01:40:23.289Z,3.60
2022-08-07T01:42:58.663Z,6.90
2022-08-07T01:44:13.596Z,2.80
2022-08-07T01:45:36.408Z,3.90
2022-08-07T01:46:56.072Z,3.70
2022-08-07T01:48:19.231Z,5.10
2022-08-07T01:49:32.684Z,7.20
2022-08-07T01:50:43.250Z,5.00
2022-08-07T01:52:02.833Z,4.40
2022-08-07T01:53:20.887Z,4.00
2022-08-07T01:54:43.053Z,3.90
2022-08-07T01:56:03.496Z,3.50
2022-08-07T01:57:24.466Z,3.60
2022-08-07T01:58:45.263Z,9.60
2022-08-07T02:00:19.927Z,2.50
2022-08-07T02:02:02.331Z,5.10
2022-08-07T02:03:21.490Z,6.20
2022-08-07T02:04:57.393Z,5.30
2022-08-07T02:06:30.708Z,3.90
2022-08-07T02:07:52.471Z,3.40
2022-08-07T02:09:11.673Z,5.00
2022-08-07T02:10:42.868Z,5.30
2022-08-07T02:12:03.287Z,3.80
2022-08-07T02:13:18.175Z,6.80
2022-08-07T02:14:35.774Z,5.00
2022-08-07T02:15:54.373Z,6.00
2022-08-07T02:17:06.162Z,7.00
2022-08-07T02:18:15.436Z,6.70
2022-08-07T02:20:04.606Z,6.00
2022-08-07T02:20:59.248Z,5.20
2022-08-07T02:22:25.616Z,3.20
2022-08-07T02:23:38.764Z,4.80
2022-08-07T02:24:50.280Z,5.90
2022-08-07T02:26:31.668Z,7.00
2022-08-07T02:27:34.217Z,5.20
2022-08-07T02:28:43.519Z,4.60
2022-08-07T02:29:54.473Z,2.70
2022-08-07T02:31:10.276Z,3.90
2022-08-07T02:33:03.788Z,3.80
2022-08-07T02:34:11.082Z,6.10
2022-08-07T02:36:30.916Z,3.50
2022-08-07T02:37:03.993Z,4.40
2022-08-07T02:38:22.725Z,3.80
2022-08-07T02:39:43.935Z,4.70
2022-08-07T02:41:11.157Z,5.20
2022-08-07T02:42:21.386Z,3.60
2022-08-07T02:43:31.264Z,4.80
2022-08-07T02:46:02.786Z,4.80
2022-08-07T02:47:19.826Z,8.50
2022-08-07T02:48:47.175Z,2.20
2022-08-07T02:50:05.847Z,3.50
2022-08-07T02:51:41.817Z,4.20
2022-08-07T02:53:06.053Z,5.60
2022-08-07T02:54:18.414Z,5.30
2022-08-07T02:56:03.179Z,4.50
2022-08-07T02:57:03.799Z,6.20
2022-08-07T02:58:27.268Z,3.80
2022-08-07T02:59:36.829Z,5.70
2022-08-07T03:00:47.421Z,4.90
2022-08-07T03:01:57.678Z,7.80
2022-08-07T03:03:14.262Z,6.10
2022-08-07T03:04:36.313Z,3.30
2022-08-07T03:05:46.345Z,2.20
2022-08-07T03:06:58.102Z,7.10
2022-08-07T03:08:16.982Z,4.60
2022-08-07T03:09:43.912Z,3.60
2022-08-07T03:10:54.926Z,6.50
2022-08-07T03:12:21.700Z,5.30
2022-08-07T03:13:38.782Z,6.80
2022-08-07T03:14:53.066Z,5.80
2022-08-07T03:16:07.106Z,12.20
2022-08-07T03:17:16.817Z,4.60
2022-08-07T03:18:34.818Z,4.70
2022-08-07T03:19:55.201Z,4.60
2022-08-07T03:21:08.837Z,7.20
2022-08-07T03:22:24.286Z,6.40
2022-08-07T03:24:20.116Z,7.00
2022-08-07T03:25:12.040Z,4.70
2022-08-07T03:26:26.894Z,4.90
2022-08-07T03:28:09.755Z,7.00
2022-08-07T03:29:11.045Z,5.30
2022-08-07T03:30:20.149Z,3.10
2022-08-07T03:31:42.595Z,6.90
2022-08-07T03:32:58.421Z,8.20
2022-08-07T03:34:18.842Z,4.60
2022-08-07T03:35:43.601Z,5.50
2022-08-07T03:37:12.259Z,4.60
2022-08-07T03:38:29.409Z,7.40
2022-08-07T03:39:58.845Z,7.60
2022-08-07T03:41:10.459Z,4.40
2022-08-07T03:42:20.130Z,4.30
2022-08-07T03:43:32.256Z,5.50
2022-08-07T03:44:41.728Z,5.20
2022-08-07T03:45:51.601Z,4.50
2022-08-07T03:47:11.201Z,6.10
2022-08-07T03:48:24.459Z,4.20
2022-08-07T03:49:34.736Z,4.80
2022-08-07T03:52:26.851Z,7.90
2022-08-07T03:55:09.484Z,8.00
2022-08-07T03:56:32.750Z,4.70
2022-08-07T03:58:33.261Z,4.60
2022-08-07T03:59:17.186Z,5.80
2022-08-07T04:00:33.703Z,5.30
2022-08-07T04:01:48.280Z,3.50
2022-08-07T04:03:05.079Z,7.50
2022-08-07T04:04:20.791Z,9.50
2022-08-07T04:05:39.608Z,4.30
2022-08-07T04:07:01.954Z,5.40
2022-08-07T04:08:29.979Z,8.70
2022-08-07T04:09:45.218Z,7.10
2022-08-07T04:12:26.964Z,5.80
2022-08-07T04:12:39.960Z,5.60
2022-08-07T04:14:10.477Z,11.40
2022-08-07T04:15:19.927Z,5.50
2022-08-07T04:16:36.193Z,9.00
2022-08-07T04:18:30.797Z,8.30
2022-08-07T04:19:18.589Z,6.00
2022-08-07T04:20:35.347Z,6.10
2022-08-07T04:21:58.922Z,5.80
2022-08-07T04:23:19.229Z,6.30
2022-08-07T04:24:33.925Z,5.90
2022-08-07T04:25:51.097Z,6.90
2022-08-07T04:27:04.477Z,9.40
2022-08-07T04:28:14.170Z,9.20
2022-08-07T04:29:27.783Z,5.90
2022-08-07T04:30:58.719Z,6.70
2022-08-07T04:32:14.364Z,5.20
2022-08-07T04:33:27.331Z,6.10
2022-08-07T04:34:39.415Z,3.50
2022-08-07T04:35:51.227Z,4.70
2022-08-07T04:37:07.977Z,5.80
2022-08-07T04:38:25.735Z,5.80
2022-08-07T04:39:35.859Z,4.30
2022-08-07T04:40:52.143Z,5.70
2022-08-07T04:42:08.067Z,4.70
2022-08-07T04:43:22.084Z,8.00
2022-08-07T04:44:54.806Z,6.00
2022-08-07T04:46:34.886Z,9.10
2022-08-07T04:48:10.850Z,7.00
2022-08-07T04:49:41.340Z,4.80
2022-08-07T04:51:09.014Z,4.90
2022-08-07T04:52:53.993Z,4.30
2022-08-07T04:54:38.932Z,6.00
2022-08-07T04:58:12.970Z,7.40
2022-08-07T04:58:33.727Z,5.90
2022-08-07T05:00:11.270Z,5.00
2022-08-07T05:02:00.591Z,8.50
2022-08-07T05:04:08.045Z,5.10
2022-08-07T05:05:52.686Z,4.80
2022-08-07T05:07:48.384Z,5.20
2022-08-07T05:09:43.170Z,6.20
2022-08-07T05:11:11.649Z,9.90
2022-08-07T05:14:44.772Z,5.00
2022-08-07T05:14:52.325Z,7.30
2022-08-07T05:16:12.594Z,8.70
2022-08-07T05:17:50.861Z,6.70
2022-08-07T05:20:17.569Z,5.00
2022-08-07T05:22:00.047Z,4.10
2022-08-07T05:23:03.230Z,5.90
2022-08-07T05:24:19.722Z,9.20
2022-08-07T05:26:08.802Z,7.00
2022-08-07T05:27:03.147Z,10.80
2022-08-07T05:28:20.503Z,6.30
2022-08-07T05:29:51.241Z,6.80
2022-08-07T05:31:01.058Z,4.90
2022-08-07T05:32:12.951Z,9.50
2022-08-07T05:33:22.015Z,6.20
2022-08-07T05:34:30.652Z,8.20
2022-08-07T05:35:42.438Z,6.50
2022-08-07T05:37:02.362Z,4.80
2022-08-07T05:40:14.360Z,9.50
2022-08-07T05:41:23.430Z,4.00
2022-08-07T05:42:34.366Z,5.10
2022-08-07T05:44:06.761Z,6.20
2022-08-07T05:45:46.956Z,6.60
2022-08-07T05:46:52.042Z,4.60
2022-08-07T05:48:06.501Z,7.80
2022-08-07T05:49:20.912Z,5.20
2022-08-07T05:50:39.367Z,5.50
2022-08-07T05:51:53.213Z,6.70
2022-08-07T05:53:05.344Z,6.60
2022-08-07T05:54:53.499Z,6.80
2022-08-07T05:56:06.103Z,3.40
2022-08-07T05:57:20.027Z,5.90
2022-08-07T05:58:36.533Z,4.10
2022-08-07T05:59:57.801Z,6.40
2022-08-07T06:01:22.240Z,9.70
2022-08-07T06:02:32.756Z,10.50
2022-08-07T06:03:56.480Z,9.10
2022-08-07T06:05:15.778Z,5.10
2022-08-07T06:06:32.574Z,6.70
2022-08-07T06:08:12.339Z,6.30
2022-08-07T06:09:14.523Z,8.90
2022-08-07T06:10:26.394Z,7.00
2022-08-07T06:11:35.920Z,6.20
2022-08-07T06:12:45.655Z,9.20
2022-08-07T06:14:13.594Z,5.90
2022-08-07T06:15:42.014Z,8.40
2022-08-07T06:16:55.796Z,8.20
2022-08-07T06:18:15.845Z,7.10
2022-08-07T06:19:51.858Z,8.00
2022-08-07T06:22:14.587Z,6.20
2022-08-07T06:22:24.075Z,9.90
2022-08-07T06:24:38.124Z,6.10
2022-08-07T06:25:11.631Z,6.90
2022-08-07T06:26:27.442Z,7.30
2022-08-07T06:27:44.454Z,5.50
2022-08-07T06:29:06.801Z,6.90
2022-08-07T06:30:31.837Z,8.40
2022-08-07T06:31:50.287Z,10.10
2022-08-07T06:33:00.358Z,7.30
2022-08-07T06:34:10.237Z,11.80
2022-08-07T06:35:21.790Z,8.80
2022-08-07T06:36:34.828Z,8.00
2022-08-07T06:37:47.913Z,9.40
2022-08-07T06:40:15.662Z,5.00
2022-08-07T06:40:49.321Z,6.90
2022-08-07T06:42:34.791Z,6.90
2022-08-07T06:44:01.799Z,5.10
2022-08-07T06:46:35.515Z,6.30
2022-08-07T06:47:48.372Z,7.60
2022-08-07T06:49:10.500Z,10.20
2022-08-07T06:50:19.222Z,7.40
2022-08-07T06:51:33.522Z,4.40
2022-08-07T06:52:47.170Z,7.10
2022-08-07T06:55:29.353Z,6.70
2022-08-07T06:55:53.832Z,6.20
2022-08-07T06:57:07.305Z,6.50
2022-08-07T06:58:17.057Z,5.20
2022-08-07T07:00:13.863Z,7.00
2022-08-07T07:01:08.979Z,7.00
2022-08-07T07:02:48.688Z,7.50
2022-08-07T07:04:27.718Z,8.60
2022-08-07T07:06:03.685Z,5.90
2022-08-07T07:07:01.113Z,8.70
2022-08-07T07:08:18.482Z,10.50
2022-08-07T07:09:36.228Z,10.10
2022-08-07T07:10:54.692Z,11.40
2022-08-07T07:12:31.070Z,8.80
2022-08-07T07:13:57.808Z,8.30
2022-08-07T07:15:24.089Z,7.40
2022-08-07T07:16:45.405Z,9.90
2022-08-07T07:18:12.224Z,10.20
2022-08-07T07:19:56.973Z,7.70
2022-08-07T07:20:55.687Z,9.60
2022-08-07T07:22:05.289Z,12.40
2022-08-07T07:24:06.161Z,14.60
2022-08-07T07:25:02.623Z,12.00
2022-08-07T07:26:34.426Z,7.20
2022-08-07T07:28:42.518Z,10.30
2022-08-07T07:30:09.156Z,7.70
2022-08-07T07:31:30.476Z,8.30
2022-08-07T07:32:51.528Z,7.60
2022-08-07T07:34:06.597Z,7.70
2022-08-07T07:35:16.030Z,9.20
2022-08-07T07:36:24.336Z,7.30
2022-08-07T07:37:47.246Z,6.60
2022-08-07T07:39:02.814Z,10.10
2022-08-07T07:40:16.970Z,5.90
2022-08-07T07:41:50.314Z,10.10
2022-08-07T07:42:55.461Z,9.30
2022-08-07T07:44:17.530Z,5.80
2022-08-07T07:46:39.741Z,19.20
2022-08-07T07:47:11.974Z,13.80
2022-08-07T07:48:35.769Z,9.70
2022-08-07T07:50:35.101Z,11.00
2022-08-07T07:51:15.431Z,11.90
2022-08-07T07:52:24.476Z,10.50
2022-08-07T07:53:34.962Z,13.20
2022-08-07T07:54:50.549Z,20.30
2022-08-07T07:56:03.632Z,10.80
2022-08-07T07:57:13.007Z,11.40
2022-08-07T07:58:20.646Z,11.30
2022-08-07T07:59:52.197Z,15.70
2022-08-07T08:01:03.070Z,9.50
2022-08-07T08:02:35.841Z,16.60
2022-08-07T08:04:10.612Z,7.90
2022-08-07T08:05:15.041Z,15.90
2022-08-07T08:06:25.367Z,10.80
2022-08-07T08:07:35.598Z,9.40
2022-08-07T08:08:52.024Z,6.40
2022-08-07T08:10:05.525Z,19.70
2022-08-07T08:11:18.041Z,12.40
2022-08-07T08:12:58.983Z,9.50
2022-08-07T08:14:12.303Z,13.20
2022-08-07T08:16:53.227Z,11.40
2022-08-07T08:18:17.217Z,9.40
2022-08-07T08:18:36.321Z,10.30
2022-08-07T08:20:17.117Z,10.30
2022-08-07T08:21:00.764Z,13.50
2022-08-07T08:22:32.766Z,16.60
2022-08-07T08:23:59.874Z,12.90
2022-08-07T08:25:42.243Z,12.10
2022-08-07T08:27:11.633Z,10.70
2022-08-07T08:28:37.867Z,11.20
2022-08-07T08:29:56.274Z,25.40
2022-08-07T08:31:05.498Z,15.70
2022-08-07T08:32:18.554Z,13.80
2022-08-07T08:33:33.804Z,14.40
2022-08-07T08:34:44.942Z,14.70
2022-08-07T08:35:53.879Z,11.20
2022-08-07T08:37:02.662Z,10.20
2022-08-07T08:38:11.861Z,11.60
2022-08-07T08:39:23.803Z,11.70
2022-08-07T08:40:40.580Z,10.70
2022-08-07T08:43:20.087Z,10.40
2022-08-07T08:44:36.248Z,12.60
2022-08-07T08:46:15.669Z,9.70
2022-08-07T08:47:52.557Z,7.60
2022-08-07T08:49:33.376Z,9.10
2022-08-07T08:50:49.250Z,11.50
2022-08-07T08:52:13.923Z,9.50
2022-08-07T08:53:45.848Z,8.30
2022-08-07T08:55:53.151Z,8.40
2022-08-07T08:56:55.240Z,18.40
2022-08-07T08:58:28.526Z,13.50
2022-08-07T08:59:52.596Z,14.90
2022-08-07T09:01:21.586Z,11.30
2022-08-07T09:02:49.415Z,12.50
2022-08-07T09:04:32.787Z,10.40
2022-08-07T09:05:56.033Z,11.70
2022-08-07T09:07:11.783Z,10.10
2022-08-07T09:08:43.972Z,12.90
2022-08-07T09:10:31.596Z,15.10
2022-08-07T09:11:54.188Z,10.40
2022-08-07T09:13:19.785Z,14.80
2022-08-07T09:16:23.467Z,10.40
2022-08-07T09:17:06.963Z,11.50
2022-08-07T09:18:58.445Z,11.00
2022-08-07T09:20:57.877Z,13.30
2022-08-07T09:24:53.813Z,7.50
2022-08-07T09:24:59.687Z,14.60
2022-08-07T09:26:29.601Z,13.20
2022-08-07T09:27:59.678Z,9.40
2022-08-07T09:30:03.369Z,9.90
2022-08-07T09:31:01.319Z,14.30
2022-08-07T09:32:29.001Z,19.50
2022-08-07T09:34:04.043Z,13.00
2022-08-07T09:36:03.839Z,17.60
2022-08-07T09:37:47.876Z,16.90
2022-08-07T09:39:54.016Z,16.60
2022-08-07T09:41:43.378Z,12.30
2022-08-07T09:44:03.630Z,11.60
2022-08-07T09:47:23.433Z,13.20
2022-08-07T09:47:50.719Z,9.20
2022-08-07T09:50:01.161Z,14.50
2022-08-07T09:51:02.446Z,14.10
2022-08-07T09:52:37.156Z,14.10
2022-08-07T09:53:48.846Z,19.50
2022-08-07T09:55:29.252Z,13.30
2022-08-07T09:57:01.468Z,9.30
2022-08-07T09:58:43.647Z,11.90
2022-08-07T10:00:15.071Z,9.60
2022-08-07T10:01:51.545Z,11.90
2022-08-07T10:04:06.152Z,10.50
2022-08-07T10:06:00.361Z,13.10
2022-08-07T10:07:39.710Z,8.70
2022-08-07T10:09:34.165Z,10.50
2022-08-07T10:12:00.135Z,15.30
2022-08-07T10:13:29.718Z,9.20
2022-08-07T10:15:26.614Z,11.20
2022-08-07T10:17:01.519Z,13.80
2022-08-07T10:18:26.647Z,12.70
2022-08-07T10:20:12.968Z,11.90
2022-08-07T10:22:12.136Z,17.00
2022-08-07T10:24:06.093Z,13.00
2022-08-07T10:25:20.954Z,9.40
2022-08-07T10:27:12.415Z,12.90
2022-08-07T10:28:27.925Z,10.00
2022-08-07T10:30:12.134Z,9.10
2022-08-07T10:31:38.742Z,11.80
2022-08-07T10:33:14.990Z,10.00
2022-08-07T10:34:27.230Z,13.50
2022-08-07T10:36:18.978Z,8.30
2022-08-07T10:38:36.247Z,13.00
2022-08-07T10:40:30.280Z,12.80
2022-08-07T10:41:53.053Z,10.00
2022-08-07T10:43:34.625Z,11.80
2022-08-07T10:45:19.606Z,9.70
2022-08-07T10:47:27.159Z,13.40
2022-08-07T10:49:16.963Z,9.60
2022-08-07T10:51:16.777Z,9.10
2022-08-07T10:52:53.108Z,11.80
2022-08-07T10:54:13.773Z,11.80
2022-08-07T10:55:38.244Z,10.80
2022-08-07T10:56:52.286Z,13.20
2022-08-07T10:58:05.664Z,11.70
2022-08-07T10:59:45.337Z,12.90
2022-08-07T11:01:00.796Z,12.90
2022-08-07T11:02:34.142Z,11.00
2022-08-07T11:04:01.361Z,9.70
2022-08-07T11:05:58.239Z,12.30
2022-08-07T11:07:59.085Z,11.40
2022-08-07T11:09:11.513Z,9.60
2022-08-07T11:10:37.441Z,10.50
2022-08-07T11:11:59.324Z,10.90
2022-08-07T11:14:44.811Z,20.80
2022-08-07T11:15:17.263Z,9.30
2022-08-07T11:16:38.887Z,11.40
2022-08-07T11:18:22.658Z,12.30
2022-08-07T11:20:00.204Z,10.80
2022-08-07T11:21:17.501Z,9.20
2022-08-07T11:23:07.174Z,9.30
2022-08-07T11:24:56.219Z,10.20
2022-08-07T11:26:50.959Z,9.10
2022-08-07T11:28:09.217Z,15.50
2022-08-07T11:29:43.539Z,6.80
2022-08-07T11:30:59.548Z,14.00
2022-08-07T11:33:02.278Z,10.00
2022-08-07T11:34:55.790Z,9.10
2022-08-07T11:36:36.157Z,13.60
2022-08-07T11:37:58.030Z,13.90
2022-08-07T11:39:59.945Z,12.70
2022-08-07T11:41:29.695Z,10.80
2022-08-07T11:43:41.493Z,8.80
2022-08-07T11:44:58.171Z,13.20
2022-08-07T11:46:11.716Z,12.40
2022-08-07T11:47:38.871Z,7.70
2022-08-07T11:49:51.022Z,11.40
2022-08-07T11:51:41.748Z,10.60
2022-08-07T11:53:23.928Z,13.30
2022-08-07T11:55:13.042Z,11.60
2022-08-07T11:56:53.078Z,11.30
2022-08-07T11:58:52.376Z,13.00
2022-08-07T12:01:04.415Z,7.40
2022-08-07T12:02:38.357Z,13.40
2022-08-07T12:04:41.094Z,8.50
2022-08-07T12:06:38.901Z,11.40
2022-08-07T12:08:03.600Z,7.90
2022-08-07T12:09:31.753Z,9.60
2022-08-07T12:11:08.135Z,8.90
2022-08-07T12:12:28.828Z,9.00
2022-08-07T12:13:55.784Z,9.70
2022-08-07T12:15:35.904Z,12.10
2022-08-07T12:16:56.471Z,13.30
2022-08-07T12:18:50.715Z,9.40
2022-08-07T12:20:30.381Z,9.50
2022-08-07T12:22:37.338Z,9.70
2022-08-07T12:24:05.369Z,9.60
2022-08-07T12:26:22.096Z,11.50
2022-08-07T12:27:27.964Z,10.40
2022-08-07T12:29:15.288Z,8.30
2022-08-07T12:30:23.644Z,8.90
2022-08-07T12:31:52.861Z,10.30
2022-08-07T12:33:30.851Z,9.50
2022-08-07T12:34:56.336Z,15.30
2022-08-07T12:36:05.835Z,10.30
2022-08-07T12:37:23.528Z,15.60
2022-08-07T12:38:43.351Z,15.70
2022-08-07T12:39:55.644Z,11.40
2022-08-07T12:41:06.364Z,15.00
2022-08-07T12:42:27.306Z,9.50
2022-08-07T12:44:02.349Z,13.40
2022-08-07T12:45:11.593Z,14.40
2022-08-07T12:47:27.072Z,10.80
2022-08-07T12:49:40.244Z,10.80
2022-08-07T12:51:17.563Z,11.40
2022-08-07T12:52:36.506Z,13.20
2022-08-07T12:54:03.155Z,13.50
2022-08-07T12:55:41.092Z,14.50
2022-08-07T12:56:55.025Z,12.40
2022-08-07T12:58:02.788Z,13.40
2022-08-07T12:59:20.836Z,9.20
2022-08-07T13:01:11.137Z,11.60
2022-08-07T13:02:38.363Z,6.80
2022-08-07T13:04:09.790Z,13.90
2022-08-07T13:06:04.674Z,9.70
2022-08-07T13:08:13.700Z,11.20
2022-08-07T13:09:12.681Z,7.60
2022-08-07T13:11:02.400Z,12.20
2022-08-07T13:12:17.134Z,10.50
2022-08-07T13:13:48.591Z,13.50
2022-08-07T13:15:31.864Z,10.90
2022-08-07T13:17:07.946Z,12.90
2022-08-07T13:18:53.895Z,15.70
2022-08-07T13:20:27.755Z,10.80
2022-08-07T13:21:57.638Z,15.20
2022-08-07T13:24:01.680Z,9.00
2022-08-07T13:25:00.250Z,14.20
2022-08-07T13:26:37.053Z,14.10
2022-08-07T13:28:29.020Z,13.80
2022-08-07T13:32:23.659Z,7.70
2022-08-07T13:34:34.290Z,10.20
2022-08-07T13:36:01.337Z,10.60
2022-08-07T13:37:01.315Z,11.50
2022-08-07T13:38:34.773Z,11.00
2022-08-07T13:40:34.143Z,8.90
2022-08-07T13:41:47.497Z,10.60
2022-08-07T13:42:59.060Z,12.60
2022-08-07T13:44:10.706Z,14.00
2022-08-07T13:46:20.890Z,9.60
2022-08-07T13:46:51.162Z,14.30
2022-08-07T13:48:08.515Z,10.40
2022-08-07T13:50:33.121Z,10.00
2022-08-07T13:51:00.269Z,13.40
2022-08-07T13:52:26.403Z,14.00
2022-08-07T13:54:00.130Z,14.20
2022-08-07T13:55:25.546Z,12.00
2022-08-07T13:56:41.126Z,12.00
2022-08-07T13:58:31.892Z,10.90
2022-08-07T13:59:40.058Z,12.80
2022-08-07T14:00:54.285Z,13.10
2022-08-07T14:02:14.896Z,17.80
2022-08-07T14:03:29.096Z,13.80
2022-08-07T14:04:56.599Z,18.00
2022-08-07T14:06:04.514Z,11.40
2022-08-07T14:07:15.253Z,20.40
2022-08-07T14:08:27.099Z,16.20
2022-08-07T14:10:17.420Z,13.80
2022-08-07T14:11:15.101Z,14.10
2022-08-07T14:12:55.509Z,14.90
2022-08-07T14:14:08.622Z,15.10
2022-08-07T14:15:50.544Z,16.50
2022-08-07T14:17:13.017Z,17.30
2022-08-07T14:18:57.201Z,17.00
2022-08-07T14:20:43.674Z,16.80
2022-08-07T14:22:01.876Z,13.20
2022-08-07T14:24:01.446Z,13.10
2022-08-07T14:25:13.968Z,11.90
2022-08-07T14:26:29.862Z,15.10
2022-08-07T14:28:12.846Z,12.40
2022-08-07T14:30:05.394Z,14.30
2022-08-07T14:31:14.070Z,17.30
2022-08-07T14:32:25.597Z,14.80
2022-08-07T14:35:07.491Z,22.60
2022-08-07T14:36:17.392Z,15.40
2022-08-07T14:38:55.722Z,14.60
2022-08-07T14:40:18.149Z,15.00
2022-08-07T14:42:18.841Z,14.50
2022-08-07T14:43:57.646Z,11.80
2022-08-07T14:44:37.100Z,12.10
2022-08-07T14:45:51.477Z,16.80
2022-08-07T14:47:14.137Z,17.20
2022-08-07T14:48:48.467Z,11.00
2022-08-07T14:49:59.174Z,11.90
2022-08-07T14:51:17.154Z,8.70
2022-08-07T14:52:28.010Z,13.00
2022-08-07T14:54:05.643Z,12.30
2022-08-07T14:55:17.426Z,9.10
2022-08-07T14:56:30.427Z,10.90
2022-08-07T14:57:58.014Z,7.20
2022-08-07T15:00:37.826Z,15.50
2022-08-07T15:01:51.488Z,16.10
2022-08-07T15:03:18.805Z,13.20
2022-08-07T15:04:28.824Z,11.90
2022-08-07T15:05:36.998Z,9.10
2022-08-07T15:07:17.679Z,10.80
2022-08-07T15:08:50.215Z,16.30
2022-08-07T15:10:08.198Z,14.70
2022-08-07T15:11:53.037Z,13.70
2022-08-07T15:13:19.243Z,9.00
2022-08-07T15:16:02.592Z,8.30
2022-08-07T15:17:17.919Z,11.30
2022-08-07T15:18:46.755Z,7.30
2022-08-07T15:20:33.656Z,13.90
2022-08-07T15:23:20.435Z,9.00
2022-08-07T15:25:15.513Z,8.20
2022-08-07T15:26:21.275Z,7.40
2022-08-07T15:27:32.120Z,7.00
2022-08-07T15:28:45.059Z,10.60
2022-08-07T15:30:16.847Z,10.20
2022-08-07T15:34:26.223Z,8.10
2022-08-07T15:36:01.652Z,10.50
2022-08-07T15:37:07.471Z,8.40
2022-08-07T15:38:30.376Z,4.80
2022-08-07T15:39:58.306Z,4.60
2022-08-07T15:41:23.374Z,7.10
2022-08-07T15:42:51.751Z,8.10
2022-08-07T15:44:13.267Z,9.20
2022-08-07T15:47:09.100Z,5.60
2022-08-07T15:48:36.118Z,9.10
2022-08-07T15:50:07.563Z,5.30
2022-08-07T15:51:18.204Z,6.30
2022-08-07T15:52:30.306Z,5.40
2022-08-07T15:53:54.429Z,7.50
2022-08-07T15:55:08.932Z,6.20
2022-08-07T15:56:24.363Z,8.00
2022-08-07T15:57:48.088Z,6.90
2022-08-07T15:59:03.005Z,9.40
2022-08-07T16:00:31.789Z,5.80
2022-08-07T16:02:01.693Z,6.80
2022-08-07T16:03:21.407Z,5.40
2022-08-07T16:04:46.876Z,6.50
2022-08-07T16:05:56.648Z,3.70
2022-08-07T16:08:32.106Z,5.90
2022-08-07T16:08:42.973Z,6.50
2022-08-07T16:10:20.386Z,8.20
2022-08-07T16:13:57.894Z,7.10
2022-08-07T16:15:55.641Z,8.40
2022-08-07T16:18:02.062Z,8.40
2022-08-07T16:19:42.801Z,6.40
2022-08-07T16:22:03.557Z,8.20
2022-08-07T16:23:54.522Z,6.80
2022-08-07T16:25:54.491Z,7.80
2022-08-07T16:27:40.783Z,6.60
2022-08-07T16:30:10.183Z,8.20
2022-08-07T16:31:58.516Z,6.80
2022-08-07T16:34:01.625Z,10.30
2022-08-07T16:34:52.459Z,10.70
2022-08-07T16:37:02.057Z,7.40
2022-08-07T16:39:00.664Z,11.50
2022-08-07T16:40:33.690Z,8.20
2022-08-07T16:42:21.494Z,8.80
2022-08-07T16:44:05.912Z,10.30
2022-08-07T16:46:40.365Z,9.70
2022-08-07T16:47:56.997Z,11.40
2022-08-07T16:50:26.584Z,10.20
2022-08-07T16:51:21.575Z,15.50
2022-08-07T16:52:55.737Z,11.80
2022-08-07T16:54:16.674Z,16.10
2022-08-07T16:55:43.740Z,12.40
2022-08-07T16:58:02.702Z,10.80
2022-08-07T16:59:45.787Z,13.10
2022-08-07T17:01:03.099Z,16.30
2022-08-07T17:02:52.881Z,18.80
2022-08-07T17:04:25.159Z,17.10
2022-08-07T17:06:19.004Z,15.10
2022-08-07T17:07:57.939Z,15.90
2022-08-07T17:09:15.805Z,16.20
2022-08-07T17:10:54.786Z,22.70
2022-08-07T17:12:35.611Z,23.60
2022-08-07T17:14:22.161Z,22.40
2022-08-07T17:16:04.677Z,24.60
2022-08-07T17:17:46.120Z,20.80
2022-08-07T17:19:03.516Z,26.30
2022-08-07T17:20:46.560Z,15.40
2022-08-07T17:22:03.031Z,18.00
2022-08-07T17:23:32.522Z,26.50
2022-08-07T17:25:47.363Z,20.70
2022-08-07T17:27:02.513Z,26.00
2022-08-07T17:28:31.073Z,28.30
2022-08-07T17:30:14.245Z,12.80
2022-08-07T17:32:03.159Z,15.80
2022-08-07T17:35:59.105Z,20.70
2022-08-07T17:38:09.397Z,22.40
2022-08-07T17:39:26.005Z,24.10
2022-08-07T17:42:02.579Z,18.90
2022-08-07T17:42:59.814Z,16.30
2022-08-07T17:44:49.993Z,13.20
2022-08-07T17:46:12.557Z,10.60
2022-08-07T17:47:45.448Z,9.60
2022-08-07T17:49:59.390Z,14.70
2022-08-07T17:52:03.677Z,13.40
2022-08-07T17:54:00.165Z,8.20
2022-08-07T17:55:16.476Z,13.50
2022-08-07T17:57:18.875Z,9.00
2022-08-07T17:58:34.711Z,15.70
2022-08-07T17:59:55.225Z,9.30
2022-08-07T18:01:21.167Z,16.10
2022-08-07T18:02:56.659Z,10.50
2022-08-07T18:04:16.380Z,12.70
2022-08-07T18:06:06.462Z,9.80
2022-08-07T18:07:38.612Z,8.50
2022-08-07T18:09:02.253Z,11.30
2022-08-07T18:12:07.027Z,8.00
2022-08-07T18:12:58.075Z,8.40
2022-08-07T18:14:16.245Z,10.50
2022-08-07T18:15:32.600Z,16.30
2022-08-07T18:16:58.993Z,7.20
2022-08-07T18:21:00.938Z,6.70
2022-08-07T18:21:11.783Z,11.00
2022-08-07T18:21:54.890Z,4.60
2022-08-07T18:23:41.956Z,9.50
2022-08-07T18:25:24.322Z,10.10
2022-08-07T18:27:17.510Z,7.30
2022-08-07T18:28:57.711Z,6.30
2022-08-07T18:30:32.345Z,5.30
2022-08-07T18:32:21.795Z,4.30
2022-08-07T18:34:37.598Z,4.30
2022-08-07T18:36:16.009Z,6.90
2022-08-07T18:38:58.809Z,6.60
2022-08-07T18:40:42.651Z,6.40
2022-08-07T18:42:34.918Z,6.50
2022-08-07T18:43:57.741Z,5.70
2022-08-07T18:47:10.575Z,5.60
2022-08-07T18:50:06.025Z,9.90
2022-08-07T18:50:47.972Z,6.60
2022-08-07T18:52:35.247Z,5.60
2022-08-07T18:54:02.339Z,5.10
2022-08-07T18:55:42.472Z,3.10
2022-08-07T18:57:30.112Z,6.90
2022-08-07T18:59:05.975Z,3.70
2022-08-07T19:00:33.342Z,6.40
2022-08-07T19:02:34.385Z,3.80
2022-08-07T19:03:57.263Z,4.60
2022-08-07T19:06:01.921Z,4.10
2022-08-07T19:07:19.948Z,3.40
2022-08-07T19:09:09.418Z,4.10
2022-08-07T19:11:35.263Z,5.20
2022-08-07T19:13:21.432Z,3.00
2022-08-07T19:14:55.187Z,8.80
2022-08-07T19:17:00.747Z,3.80
2022-08-07T19:18:35.029Z,3.00
2022-08-07T19:20:05.584Z,2.70
2022-08-07T19:21:51.043Z,3.60
2022-08-07T19:23:18.669Z,3.60
2022-08-07T19:24:49.879Z,2.20
2022-08-07T19:26:23.263Z,4.40
2022-08-07T19:29:00.179Z,2.50
2022-08-07T19:30:55.247Z,2.10
2022-08-07T19:30:55.625Z,1.90
2022-08-07T19:32:26.587Z,3.00
2022-08-07T19:33:45.598Z,3.10
2022-08-07T19:35:22.326Z,1.60
2022-08-07T19:36:33.614Z,4.40
2022-08-07T19:37:56.533Z,3.00
2022-08-07T19:39:12.009Z,3.10
2022-08-07T19:40:30.981Z,3.70
2022-08-07T19:42:08.037Z,2.80
2022-08-07T19:43:50.195Z,2.50
2022-08-07T19:45:00.599Z,3.40
2022-08-07T19:46:29.104Z,1.50